createdAt,value
2023-05-12T00:00:37.496Z,32.37
2023-05-12T00:01:37.501Z,32.36
2023-05-12T00:02:37.585Z,32.41
2023-05-12T00:03:37.737Z,32.40
2023-05-12T00:04:37.594Z,32.34
2023-05-12T00:05:37.669Z,32.37
2023-05-12T00:06:37.666Z,32.35
2023-05-12T00:07:37.685Z,32.35
2023-05-12T00:08:37.733Z,32.39
2023-05-12T00:09:37.794Z,32.37
2023-05-12T00:10:37.845Z,32.38
2023-05-12T00:11:37.843Z,32.36
2023-05-12T00:12:37.893Z,32.33
2023-05-12T00:13:37.975Z,32.35
2023-05-12T00:14:37.924Z,32.33
2023-05-12T00:15:37.998Z,32.34
2023-05-12T00:16:38.153Z,32.34
2023-05-12T00:17:38.070Z,32.35
2023-05-12T00:18:38.099Z,32.34
2023-05-12T00:19:38.252Z,32.35
2023-05-12T00:20:38.152Z,32.34
2023-05-12T00:21:38.235Z,32.32
2023-05-12T00:22:38.274Z,32.33
2023-05-12T00:23:38.317Z,32.31
2023-05-12T00:24:38.364Z,32.33
2023-05-12T00:25:38.399Z,32.32
2023-05-12T00:26:38.442Z,32.33
2023-05-12T00:27:38.478Z,32.35
2023-05-12T00:28:38.483Z,32.31
2023-05-12T00:29:38.538Z,32.29
2023-05-12T00:30:38.581Z,32.30
2023-05-12T00:31:38.676Z,32.30
2023-05-12T00:32:38.686Z,32.28
2023-05-12T00:33:38.668Z,32.31
2023-05-12T00:34:38.717Z,32.33
2023-05-12T00:35:38.744Z,32.32
2023-05-12T00:36:38.782Z,32.33
2023-05-12T00:37:38.824Z,32.36
2023-05-12T00:38:38.858Z,32.33
2023-05-12T00:39:38.893Z,32.33
2023-05-12T00:40:38.930Z,32.32
2023-05-12T00:41:38.932Z,32.32
2023-05-12T00:42:38.960Z,32.34
2023-05-12T00:43:39.007Z,32.34
2023-05-12T00:44:39.013Z,32.33
2023-05-12T00:45:39.107Z,32.32
2023-05-12T00:46:39.079Z,32.34
2023-05-12T00:47:39.126Z,32.34
2023-05-12T00:48:39.145Z,32.34
2023-05-12T00:49:39.205Z,32.35
2023-05-12T00:50:39.236Z,32.35
2023-05-12T00:51:39.308Z,32.33
2023-05-12T00:52:39.323Z,32.35
2023-05-12T00:53:49.147Z,32.34
2023-05-12T00:54:40.357Z,32.37
2023-05-12T00:55:39.337Z,32.40
2023-05-12T00:56:39.446Z,32.36
2023-05-12T00:57:39.312Z,32.38
2023-05-12T00:58:39.323Z,32.37
2023-05-12T00:59:39.306Z,32.35
2023-05-12T01:00:39.341Z,32.33
2023-05-12T01:01:39.406Z,32.37
2023-05-12T01:02:39.410Z,32.37
2023-05-12T01:03:39.309Z,32.34
2023-05-12T01:04:39.333Z,32.36
2023-05-12T01:05:39.298Z,32.35
2023-05-12T01:06:39.275Z,32.38
2023-05-12T01:07:39.345Z,32.35
2023-05-12T01:08:39.364Z,32.35
2023-05-12T01:09:39.392Z,32.34
2023-05-12T01:10:39.442Z,32.37
2023-05-12T01:11:39.505Z,32.37
2023-05-12T01:12:39.553Z,32.38
2023-05-12T01:13:39.565Z,32.40
2023-05-12T01:14:39.624Z,32.38
2023-05-12T01:15:39.671Z,32.38
2023-05-12T01:16:39.726Z,32.40
2023-05-12T01:17:39.874Z,32.35
2023-05-12T01:18:39.803Z,32.37
2023-05-12T01:19:39.826Z,32.37
2023-05-12T01:20:39.855Z,32.36
2023-05-12T01:21:39.888Z,32.36
2023-05-12T01:22:40.142Z,32.38
2023-05-12T01:23:40.004Z,32.38
2023-05-12T01:24:40.054Z,32.38
2023-05-12T01:25:40.229Z,32.39
2023-05-12T01:26:40.113Z,32.39
2023-05-12T01:27:40.193Z,32.41
2023-05-12T01:28:40.180Z,32.41
2023-05-12T01:29:40.240Z,32.42
2023-05-12T01:30:40.247Z,32.44
2023-05-12T01:31:40.398Z,32.44
2023-05-12T01:32:40.339Z,32.46
2023-05-12T01:33:40.329Z,32.45
2023-05-12T01:34:40.327Z,32.47
2023-05-12T01:35:40.393Z,32.44
2023-05-12T01:36:40.423Z,32.46
2023-05-12T01:37:40.473Z,32.47
2023-05-12T01:38:40.507Z,32.45
2023-05-12T01:39:40.495Z,32.46
2023-05-12T01:40:40.485Z,32.45
2023-05-12T01:41:40.530Z,32.44
2023-05-12T01:42:40.581Z,32.45
2023-05-12T01:43:40.585Z,32.44
2023-05-12T01:44:40.634Z,32.47
2023-05-12T01:45:40.654Z,32.48
2023-05-12T01:46:40.738Z,32.48
2023-05-12T01:47:40.751Z,32.49
2023-05-12T01:48:40.767Z,32.49
2023-05-12T01:49:40.806Z,32.47
2023-05-12T01:50:40.846Z,32.49
2023-05-12T01:51:40.880Z,32.49
2023-05-12T01:52:40.914Z,32.48
2023-05-12T01:53:40.947Z,32.47
2023-05-12T01:54:41.000Z,32.51
2023-05-12T01:55:41.157Z,32.50
2023-05-12T01:56:41.078Z,32.51
2023-05-12T01:57:41.262Z,32.53
2023-05-12T01:58:41.217Z,32.53
2023-05-12T01:59:41.160Z,32.50
2023-05-12T02:00:41.189Z,32.54
2023-05-12T02:01:41.291Z,32.53
2023-05-12T02:02:42.880Z,32.55
2023-05-12T02:03:41.440Z,32.53
2023-05-12T02:04:41.332Z,32.54
2023-05-12T02:05:41.400Z,32.54
2023-05-12T02:06:41.443Z,32.53
2023-05-12T02:07:41.485Z,32.55
2023-05-12T02:08:41.506Z,32.54
2023-05-12T02:09:41.538Z,32.53
2023-05-12T02:10:41.588Z,32.55
2023-05-12T02:11:41.642Z,32.54
2023-05-12T02:12:41.685Z,32.54
2023-05-12T02:13:41.709Z,32.52
2023-05-12T02:14:41.754Z,32.56
2023-05-12T02:15:41.808Z,32.55
2023-05-12T02:16:41.954Z,32.56
2023-05-12T02:17:41.865Z,32.56
2023-05-12T02:18:41.910Z,32.56
2023-05-12T02:19:41.917Z,32.56
2023-05-12T02:20:41.942Z,32.56
2023-05-12T02:21:41.996Z,32.57
2023-05-12T02:22:42.016Z,32.56
2023-05-12T02:23:42.052Z,32.56
2023-05-12T02:24:42.088Z,32.58
2023-05-12T02:25:42.149Z,32.55
2023-05-12T02:26:42.182Z,32.56
2023-05-12T02:27:42.297Z,32.55
2023-05-12T02:28:42.244Z,32.54
2023-05-12T02:29:42.314Z,32.57
2023-05-12T02:30:42.337Z,32.55
2023-05-12T02:31:42.603Z,32.55
2023-05-12T02:32:42.426Z,32.56
2023-05-12T02:33:42.460Z,32.54
2023-05-12T02:34:42.457Z,32.56
2023-05-12T02:35:42.463Z,32.54
2023-05-12T02:36:42.519Z,32.55
2023-05-12T02:37:42.532Z,32.58
2023-05-12T02:38:42.558Z,32.57
2023-05-12T02:39:42.618Z,32.56
2023-05-12T02:40:42.643Z,32.55
2023-05-12T02:41:42.654Z,32.56
2023-05-12T02:42:42.710Z,32.57
2023-05-12T02:43:42.744Z,32.56
2023-05-12T02:44:42.773Z,32.55
2023-05-12T02:45:42.869Z,32.55
2023-05-12T02:46:42.848Z,32.55
2023-05-12T02:47:42.940Z,32.56
2023-05-12T02:48:42.953Z,32.54
2023-05-12T02:49:42.947Z,32.56
2023-05-12T02:50:42.970Z,32.53
2023-05-12T02:51:42.993Z,32.52
2023-05-12T02:52:43.025Z,32.51
2023-05-12T02:53:43.136Z,32.54
2023-05-12T02:54:43.124Z,32.53
2023-05-12T02:55:43.165Z,32.53
2023-05-12T02:56:43.199Z,32.53
2023-05-12T02:57:43.221Z,32.50
2023-05-12T02:58:43.271Z,32.51
2023-05-12T02:59:43.350Z,32.51
2023-05-12T03:00:43.351Z,32.49
2023-05-12T03:01:43.459Z,32.52
2023-05-12T03:02:43.609Z,32.51
2023-05-12T03:03:43.644Z,32.50
2023-05-12T03:04:43.495Z,32.48
2023-05-12T03:05:43.542Z,32.52
2023-05-12T03:06:43.601Z,32.50
2023-05-12T03:07:43.655Z,32.48
2023-05-12T03:08:43.644Z,32.49
2023-05-12T03:09:43.673Z,32.48
2023-05-12T03:10:43.707Z,32.49
2023-05-12T03:11:43.753Z,32.47
2023-05-12T03:12:43.801Z,32.47
2023-05-12T03:13:43.857Z,32.49
2023-05-12T03:14:43.865Z,32.49
2023-05-12T03:15:43.940Z,32.46
2023-05-12T03:16:43.996Z,32.48
2023-05-12T03:17:44.004Z,32.47
2023-05-12T03:18:44.019Z,32.47
2023-05-12T03:19:44.003Z,32.47
2023-05-12T03:20:44.100Z,32.47
2023-05-12T03:21:44.088Z,32.47
2023-05-12T03:22:44.119Z,32.49
2023-05-12T03:23:44.147Z,32.47
2023-05-12T03:24:44.169Z,32.47
2023-05-12T03:25:44.184Z,32.49
2023-05-12T03:26:44.220Z,32.46
2023-05-12T03:27:44.283Z,32.45
2023-05-12T03:28:44.244Z,32.45
2023-05-12T03:29:44.302Z,32.45
2023-05-12T03:30:44.365Z,32.48
2023-05-12T03:31:44.519Z,32.45
2023-05-12T03:32:44.480Z,32.49
2023-05-12T03:33:44.456Z,32.46
2023-05-12T03:34:44.476Z,32.44
2023-05-12T03:35:44.512Z,32.45
2023-05-12T03:36:44.563Z,32.41
2023-05-12T03:37:44.602Z,32.44
2023-05-12T03:38:44.669Z,32.44
2023-05-12T03:39:44.713Z,32.43
2023-05-12T03:40:44.714Z,32.44
2023-05-12T03:41:44.750Z,32.46
2023-05-12T03:42:44.810Z,32.45
2023-05-12T03:43:44.843Z,32.47
2023-05-12T03:44:45.062Z,32.42
2023-05-12T03:45:44.918Z,32.45
2023-05-12T03:46:45.077Z,32.45
2023-05-12T03:47:45.227Z,32.46
2023-05-12T03:48:45.082Z,32.46
2023-05-12T03:49:45.115Z,32.46
2023-05-12T03:50:45.144Z,32.46
2023-05-12T03:51:45.182Z,32.47
2023-05-12T03:52:45.208Z,32.48
2023-05-12T03:53:45.284Z,32.47
2023-05-12T03:54:45.295Z,32.44
2023-05-12T03:55:45.316Z,32.45
2023-05-12T03:56:45.380Z,32.44
2023-05-12T03:57:45.407Z,32.42
2023-05-12T03:58:45.469Z,32.45
2023-05-12T03:59:45.474Z,32.43
2023-05-12T04:00:45.519Z,32.44
2023-05-12T04:01:45.604Z,32.46
2023-05-12T04:02:45.773Z,32.46
2023-05-12T04:03:45.758Z,32.45
2023-05-12T04:04:45.723Z,32.46
2023-05-12T04:05:45.755Z,32.47
2023-05-12T04:06:45.758Z,32.46
2023-05-12T04:07:45.793Z,32.48
2023-05-12T04:08:45.842Z,32.48
2023-05-12T04:09:45.902Z,32.45
2023-05-12T04:10:45.954Z,32.48
2023-05-12T04:11:46.047Z,32.47
2023-05-12T04:12:46.065Z,32.46
2023-05-12T04:13:46.049Z,32.44
2023-05-12T04:14:46.114Z,32.46
2023-05-12T04:15:46.122Z,32.47
2023-05-12T04:16:46.302Z,32.48
2023-05-12T04:17:46.316Z,32.48
2023-05-12T04:18:46.315Z,32.46
2023-05-12T04:19:46.328Z,32.48
2023-05-12T04:20:46.333Z,32.44
2023-05-12T04:21:46.391Z,32.46
2023-05-12T04:22:46.436Z,32.47
2023-05-12T04:23:46.523Z,32.48
2023-05-12T04:24:46.505Z,32.48
2023-05-12T04:25:46.570Z,32.48
2023-05-12T04:26:46.603Z,32.45
2023-05-12T04:27:46.649Z,32.50
2023-05-12T04:28:46.720Z,32.46
2023-05-12T04:29:46.741Z,32.48
2023-05-12T04:30:46.769Z,32.48
2023-05-12T04:31:46.860Z,32.49
2023-05-12T04:32:46.934Z,32.49
2023-05-12T04:33:48.319Z,32.48
2023-05-12T04:34:46.919Z,32.50
2023-05-12T04:35:46.961Z,32.47
2023-05-12T04:36:46.995Z,32.47
2023-05-12T04:37:47.060Z,32.49
2023-05-12T04:38:47.095Z,32.48
2023-05-12T04:39:47.125Z,32.45
2023-05-12T04:40:47.159Z,32.47
2023-05-12T04:41:47.217Z,32.44
2023-05-12T04:42:47.272Z,32.44
2023-05-12T04:44:47.351Z,32.45
2023-05-12T04:45:47.349Z,32.44
2023-05-12T04:46:47.326Z,32.43
2023-05-12T04:47:47.317Z,32.42
2023-05-12T04:48:47.365Z,32.43
2023-05-12T04:49:47.292Z,32.43
2023-05-12T04:50:47.290Z,32.44
2023-05-12T04:51:47.290Z,32.43
2023-05-12T04:52:47.278Z,32.44
2023-05-12T04:53:47.270Z,32.45
2023-05-12T04:54:47.251Z,32.45
2023-05-12T04:55:47.246Z,32.44
2023-05-12T04:56:47.237Z,32.42
2023-05-12T04:57:47.221Z,32.46
2023-05-12T04:58:47.205Z,32.45
2023-05-12T04:59:47.216Z,32.42
2023-05-12T05:00:47.204Z,32.44
2023-05-12T05:01:47.350Z,32.44
2023-05-12T05:02:47.321Z,32.42
2023-05-12T05:03:47.278Z,32.42
2023-05-12T05:04:47.177Z,32.40
2023-05-12T05:05:47.167Z,32.42
2023-05-12T05:06:47.163Z,32.44
2023-05-12T05:07:47.153Z,32.42
2023-05-12T05:08:47.157Z,32.41
2023-05-12T05:09:47.136Z,32.44
2023-05-12T05:10:47.138Z,32.44
2023-05-12T05:11:47.156Z,32.42
2023-05-12T05:12:47.124Z,32.40
2023-05-12T05:13:47.130Z,32.43
2023-05-12T05:14:47.119Z,32.43
2023-05-12T05:15:47.126Z,32.44
2023-05-12T05:16:47.085Z,32.43
2023-05-12T05:17:47.131Z,32.44
2023-05-12T05:18:47.128Z,32.43
2023-05-12T05:19:55.954Z,32.41
2023-05-12T05:20:57.241Z,32.40
2023-05-12T05:21:48.051Z,32.43
2023-05-12T05:22:47.045Z,32.42
2023-05-12T05:23:47.052Z,32.41
2023-05-12T05:24:47.050Z,32.39
2023-05-12T05:25:47.050Z,32.38
2023-05-12T05:26:47.029Z,32.39
2023-05-12T05:27:47.266Z,32.37
2023-05-12T05:28:47.011Z,32.46
2023-05-12T05:29:47.014Z,32.88
2023-05-12T05:30:47.024Z,32.97
2023-05-12T05:31:47.076Z,33.63
2023-05-12T05:32:47.369Z,33.73
2023-05-12T05:33:46.983Z,33.70
2023-05-12T05:34:46.971Z,34.27
2023-05-12T05:35:46.963Z,34.69
2023-05-12T05:36:46.944Z,34.25
2023-05-12T05:37:46.943Z,34.62
2023-05-12T05:38:46.938Z,34.85
2023-05-12T05:39:46.940Z,34.91
2023-05-12T05:40:53.607Z,35.88
2023-05-12T05:41:47.910Z,35.76
2023-05-12T05:42:46.939Z,35.46
2023-05-12T05:43:46.918Z,35.33
2023-05-12T05:44:46.917Z,35.33
2023-05-12T05:45:46.881Z,35.34
2023-05-12T05:46:46.886Z,35.19
2023-05-12T05:47:47.307Z,34.82
2023-05-12T05:48:46.874Z,34.75
2023-05-12T05:49:46.863Z,35.13
2023-05-12T05:50:47.006Z,34.32
2023-05-12T05:51:46.865Z,34.05
2023-05-12T05:52:46.876Z,34.35
2023-05-12T05:53:46.869Z,34.65
2023-05-12T05:54:46.828Z,34.42
2023-05-12T05:55:46.890Z,34.66
2023-05-12T05:56:46.877Z,34.40
2023-05-12T05:57:46.930Z,34.57
2023-05-12T05:58:46.917Z,34.52
2023-05-12T05:59:46.988Z,34.57
2023-05-12T06:00:47.040Z,34.67
2023-05-12T06:01:47.119Z,34.80
2023-05-12T06:02:47.216Z,34.74
2023-05-12T06:03:47.221Z,34.82
2023-05-12T06:04:47.229Z,34.79
2023-05-12T06:05:47.260Z,34.76
2023-05-12T06:06:47.243Z,34.47
2023-05-12T06:07:47.473Z,34.36
2023-05-12T06:08:47.297Z,34.30
2023-05-12T06:09:47.521Z,34.14
2023-05-12T06:10:47.363Z,33.94
2023-05-12T06:11:47.415Z,33.56
2023-05-12T06:12:47.436Z,33.37
2023-05-12T06:13:47.495Z,33.27
2023-05-12T06:14:47.517Z,33.56
2023-05-12T06:15:47.537Z,33.09
2023-05-12T06:16:47.680Z,32.81
2023-05-12T06:17:47.665Z,33.08
2023-05-12T06:18:47.736Z,33.15
2023-05-12T06:19:47.737Z,33.30
2023-05-12T06:20:47.775Z,33.20
2023-05-12T06:21:47.831Z,33.22
2023-05-12T06:22:47.893Z,33.20
2023-05-12T06:23:47.947Z,33.00
2023-05-12T06:24:47.936Z,33.38
2023-05-12T06:25:47.955Z,33.74
2023-05-12T06:26:47.996Z,33.64
2023-05-12T06:27:48.090Z,33.95
2023-05-12T06:28:48.081Z,33.99
2023-05-12T06:29:48.096Z,33.78
2023-05-12T06:30:48.109Z,33.81
2023-05-12T06:31:48.169Z,33.69
2023-05-12T06:32:48.452Z,34.14
2023-05-12T06:33:48.219Z,34.24
2023-05-12T06:34:48.254Z,34.19
2023-05-12T06:35:48.277Z,34.38
2023-05-12T06:36:48.303Z,34.07
2023-05-12T06:37:48.536Z,34.23
2023-05-12T06:38:48.409Z,33.80
2023-05-12T06:39:48.442Z,33.72
2023-05-12T06:40:48.446Z,33.58
2023-05-12T06:41:48.490Z,33.46
2023-05-12T06:42:48.528Z,33.46
2023-05-12T06:43:48.548Z,33.56
2023-05-12T06:44:48.599Z,33.25
2023-05-12T06:45:48.664Z,32.89
2023-05-12T06:46:48.707Z,33.21
2023-05-12T06:47:48.817Z,33.60
2023-05-12T06:48:48.717Z,33.90
2023-05-12T06:49:48.737Z,34.44
2023-05-12T06:50:48.765Z,34.65
2023-05-12T06:51:48.776Z,34.46
2023-05-12T06:52:48.820Z,34.81
2023-05-12T06:53:48.814Z,34.68
2023-05-12T06:54:48.858Z,34.70
2023-05-12T06:55:48.884Z,34.62
2023-05-12T06:56:48.949Z,34.75
2023-05-12T06:57:49.306Z,34.64
2023-05-12T06:58:49.015Z,34.73
2023-05-12T06:59:49.029Z,34.68
2023-05-12T07:00:49.040Z,34.63
2023-05-12T07:01:49.085Z,34.60
2023-05-12T07:02:49.132Z,34.58
2023-05-12T07:03:49.145Z,34.59
2023-05-12T07:04:49.155Z,34.58
2023-05-12T07:05:49.249Z,34.49
2023-05-12T07:06:49.252Z,34.53
2023-05-12T07:07:49.272Z,34.42
2023-05-12T07:08:49.307Z,34.47
2023-05-12T07:09:49.324Z,34.48
2023-05-12T07:10:49.387Z,34.39
2023-05-12T07:11:50.217Z,34.45
2023-05-12T07:12:49.442Z,34.46
2023-05-12T07:13:49.460Z,34.41
2023-05-12T07:14:49.510Z,34.35
2023-05-12T07:15:49.897Z,34.43
2023-05-12T07:16:49.589Z,34.40
2023-05-12T07:17:49.897Z,34.44
2023-05-12T07:18:49.702Z,34.39
2023-05-12T07:19:49.689Z,34.39
2023-05-12T07:20:49.745Z,34.40
2023-05-12T07:21:49.791Z,34.37
2023-05-12T07:22:49.834Z,34.21
2023-05-12T07:23:49.858Z,34.31
2023-05-12T07:24:49.887Z,34.32
2023-05-12T07:25:49.910Z,34.32
2023-05-12T07:26:49.943Z,34.32
2023-05-12T07:27:50.007Z,34.27
2023-05-12T07:28:49.953Z,34.24
2023-05-12T07:29:49.986Z,34.35
2023-05-12T07:30:49.992Z,34.41
2023-05-12T07:31:50.142Z,33.99
2023-05-12T07:32:50.094Z,33.60
2023-05-12T07:33:50.117Z,33.62
2023-05-12T07:34:50.179Z,33.72
2023-05-12T07:35:50.195Z,33.92
2023-05-12T07:36:50.233Z,33.91
2023-05-12T07:37:50.280Z,33.96
2023-05-12T07:38:50.310Z,34.04
2023-05-12T07:39:50.332Z,34.00
2023-05-12T07:40:50.341Z,33.98
2023-05-12T07:41:50.354Z,33.89
2023-05-12T07:42:50.854Z,33.96
2023-05-12T07:43:50.452Z,33.98
2023-05-12T07:44:50.532Z,34.04
2023-05-12T07:45:50.555Z,34.04
2023-05-12T07:46:50.630Z,34.01
2023-05-12T07:47:50.914Z,34.07
2023-05-12T07:48:50.690Z,33.94
2023-05-12T07:49:50.743Z,33.99
2023-05-12T07:50:50.741Z,34.07
2023-05-12T07:51:50.762Z,34.07
2023-05-12T07:52:50.845Z,34.02
2023-05-12T07:53:50.889Z,33.87
2023-05-12T07:54:50.885Z,33.80
2023-05-12T07:55:50.950Z,33.87
2023-05-12T07:56:51.004Z,33.75
2023-05-12T07:57:51.412Z,33.76
2023-05-12T07:58:51.384Z,33.62
2023-05-12T07:59:51.102Z,33.54
2023-05-12T08:00:51.143Z,33.45
2023-05-12T08:01:51.196Z,33.14
2023-05-12T08:02:51.711Z,32.79
2023-05-12T08:03:51.606Z,32.49
2023-05-12T08:04:51.326Z,32.74
2023-05-12T08:05:51.418Z,32.18
2023-05-12T08:06:51.394Z,32.70
2023-05-12T08:07:51.485Z,32.39
2023-05-12T08:08:51.495Z,32.29
2023-05-12T08:09:51.516Z,31.98
2023-05-12T08:10:51.587Z,32.28
2023-05-12T08:11:51.971Z,32.27
2023-05-12T08:12:51.619Z,31.94
2023-05-12T08:13:51.629Z,30.96
2023-05-12T08:14:51.654Z,31.37
2023-05-12T08:15:51.678Z,31.01
2023-05-12T08:16:51.707Z,31.30
2023-05-12T08:17:51.736Z,31.26
2023-05-12T08:18:51.755Z,31.39
2023-05-12T08:19:51.774Z,31.86
2023-05-12T08:20:51.705Z,31.92
2023-05-12T08:21:51.733Z,31.82
2023-05-12T08:22:51.716Z,31.83
2023-05-12T08:23:51.870Z,32.55
2023-05-12T08:24:51.784Z,32.11
2023-05-12T08:25:51.832Z,31.97
2023-05-12T08:26:51.883Z,31.64
2023-05-12T08:27:51.907Z,32.19
2023-05-12T08:28:51.964Z,32.45
2023-05-12T08:29:51.985Z,31.84
2023-05-12T08:30:52.084Z,31.19
2023-05-12T08:31:52.016Z,31.34
2023-05-12T08:32:52.131Z,32.00
2023-05-12T08:34:09.215Z,32.61
2023-05-12T08:34:53.061Z,32.47
2023-05-12T08:35:52.120Z,32.95
2023-05-12T08:36:52.033Z,33.00
2023-05-12T08:37:52.038Z,32.17
2023-05-12T08:38:52.016Z,32.37
2023-05-12T08:39:52.008Z,32.28
2023-05-12T08:40:52.038Z,32.58
2023-05-12T08:41:52.079Z,32.65
2023-05-12T08:42:52.105Z,32.81
2023-05-12T08:43:52.352Z,32.85
2023-05-12T08:44:52.169Z,31.87
2023-05-12T08:45:52.234Z,31.54
2023-05-12T08:46:52.391Z,31.62
2023-05-12T08:47:52.297Z,31.69
2023-05-12T08:48:52.311Z,31.66
2023-05-12T08:49:52.598Z,31.64
2023-05-12T08:50:52.352Z,31.87
2023-05-12T08:51:57.736Z,31.99
2023-05-12T08:52:53.389Z,32.00
2023-05-12T08:53:52.361Z,32.15
2023-05-12T08:54:56.042Z,32.01
2023-05-12T08:57:09.135Z,31.95
2023-05-12T08:57:52.355Z,32.12
2023-05-12T08:58:52.385Z,32.07
2023-05-12T08:59:52.312Z,32.25
2023-05-12T09:00:52.455Z,32.27
2023-05-12T09:01:52.594Z,32.38
2023-05-12T09:02:54.578Z,32.35
2023-05-12T09:03:52.942Z,32.31
2023-05-12T09:04:52.663Z,32.52
2023-05-12T09:05:52.624Z,32.52
2023-05-12T09:06:55.522Z,32.54
2023-05-12T09:07:52.648Z,32.62
2023-05-12T09:08:52.887Z,32.75
2023-05-12T09:09:52.671Z,32.84
2023-05-12T09:10:52.613Z,32.82
2023-05-12T09:11:52.613Z,32.68
2023-05-12T09:12:52.624Z,32.62
2023-05-12T09:13:52.860Z,32.57
2023-05-12T09:14:52.615Z,32.48
2023-05-12T09:15:52.651Z,32.40
2023-05-12T09:16:52.649Z,32.37
2023-05-12T09:17:52.665Z,32.29
2023-05-12T09:18:52.761Z,32.23
2023-05-12T09:19:52.572Z,32.20
2023-05-12T09:20:52.565Z,32.20
2023-05-12T09:21:52.562Z,32.16
2023-05-12T09:22:52.576Z,32.17
2023-05-12T09:23:52.955Z,32.12
2023-05-12T09:24:52.548Z,32.07
2023-05-12T09:25:52.525Z,32.06
2023-05-12T09:26:52.569Z,32.34
2023-05-12T09:27:52.507Z,32.45
2023-05-12T09:28:52.505Z,32.69
2023-05-12T09:30:52.517Z,33.21
2023-05-12T09:31:52.519Z,33.24
2023-05-12T09:32:52.493Z,33.33
2023-05-12T09:33:52.865Z,33.34
2023-05-12T09:34:52.466Z,33.36
2023-05-12T09:35:52.480Z,33.38
2023-05-12T09:36:52.450Z,33.30
2023-05-12T09:37:52.451Z,33.27
2023-05-12T09:38:52.882Z,33.19
2023-05-12T09:39:52.545Z,33.34
2023-05-12T09:40:52.436Z,33.45
2023-05-12T09:41:52.415Z,33.34
2023-05-12T09:42:52.433Z,33.21
2023-05-12T09:43:52.872Z,32.99
2023-05-12T09:44:52.417Z,33.22
2023-05-12T09:45:52.451Z,33.22
2023-05-12T09:46:52.392Z,33.15
2023-05-12T09:47:52.412Z,33.25
2023-05-12T09:48:52.878Z,33.53
2023-05-12T09:49:52.395Z,33.50
2023-05-12T09:50:52.409Z,33.70
2023-05-12T09:51:52.366Z,33.31
2023-05-12T09:52:52.337Z,32.97
2023-05-12T09:53:52.397Z,32.81
2023-05-12T09:54:52.336Z,32.98
2023-05-12T09:55:52.340Z,32.42
2023-05-12T09:56:52.295Z,32.68
2023-05-12T09:57:52.292Z,32.80
2023-05-12T09:58:52.287Z,32.61
2023-05-12T09:59:52.332Z,32.84
2023-05-12T10:01:17.891Z,33.05
2023-05-12T10:01:53.299Z,32.82
2023-05-12T10:02:52.368Z,32.75
2023-05-12T10:03:52.255Z,32.78
2023-05-12T10:04:52.332Z,32.96
2023-05-12T10:05:52.248Z,32.94
2023-05-12T10:06:52.227Z,33.13
2023-05-12T10:07:52.236Z,32.84
2023-05-12T10:08:52.389Z,33.05
2023-05-12T10:09:52.221Z,32.97
2023-05-12T10:10:52.240Z,33.20
2023-05-12T10:11:54.011Z,32.84
2023-05-12T10:12:52.216Z,33.09
2023-05-12T10:13:52.442Z,33.15
2023-05-12T10:14:52.371Z,32.80
2023-05-12T10:15:52.365Z,32.60
2023-05-12T10:16:52.396Z,32.66
2023-05-12T10:17:54.023Z,33.03
2023-05-12T10:18:52.513Z,33.29
2023-05-12T10:19:52.541Z,33.49
2023-05-12T10:20:52.557Z,33.72
2023-05-12T10:21:52.594Z,33.45
2023-05-12T10:22:52.632Z,33.91
2023-05-12T10:23:52.878Z,33.84
2023-05-12T10:24:52.699Z,33.76
2023-05-12T10:25:52.721Z,33.30
2023-05-12T10:26:52.778Z,33.70
2023-05-12T10:27:52.839Z,33.67
2023-05-12T10:28:52.887Z,33.72
2023-05-12T10:29:53.609Z,33.73
2023-05-12T10:30:52.943Z,33.78
2023-05-12T10:31:53.108Z,34.10
2023-05-12T10:32:53.074Z,34.06
2023-05-12T10:33:53.034Z,34.05
2023-05-12T10:34:53.100Z,34.10
2023-05-12T10:35:53.091Z,34.18
2023-05-12T10:36:53.108Z,34.16
2023-05-12T10:37:53.114Z,34.20
2023-05-12T10:38:53.186Z,34.20
2023-05-12T10:39:53.237Z,34.19
2023-05-12T10:40:53.306Z,34.15
2023-05-12T10:41:53.313Z,34.17
2023-05-12T10:42:53.363Z,34.19
2023-05-12T10:43:53.421Z,34.24
2023-05-12T10:44:53.412Z,34.26
2023-05-12T10:45:53.433Z,34.06
2023-05-12T10:46:53.484Z,34.15
2023-05-12T10:47:53.573Z,34.27
2023-05-12T10:48:53.684Z,34.03
2023-05-12T10:49:53.659Z,34.00
2023-05-12T10:50:53.656Z,34.12
2023-05-12T10:51:53.689Z,34.15
2023-05-12T10:52:53.803Z,34.10
2023-05-12T10:53:54.846Z,34.09
2023-05-12T10:54:53.796Z,34.07
2023-05-12T10:55:53.949Z,34.09
2023-05-12T10:56:54.076Z,34.09
2023-05-12T10:57:54.169Z,34.01
2023-05-12T10:58:54.203Z,34.04
2023-05-12T10:59:54.416Z,34.19
2023-05-12T11:00:55.212Z,34.11
2023-05-12T11:01:54.383Z,34.09
2023-05-12T11:02:54.536Z,33.84
2023-05-12T11:03:54.549Z,34.01
2023-05-12T11:04:54.589Z,33.84
2023-05-12T11:05:54.100Z,33.87
2023-05-12T11:06:54.564Z,33.80
2023-05-12T11:07:54.677Z,33.75
2023-05-12T11:08:55.160Z,33.64
2023-05-12T11:09:58.425Z,33.44
2023-05-12T11:10:55.057Z,33.23
2023-05-12T11:11:54.293Z,33.25
2023-05-12T11:12:53.961Z,33.36
2023-05-12T11:13:53.969Z,33.15
2023-05-12T11:14:54.425Z,33.66
2023-05-12T11:15:54.005Z,33.62
2023-05-12T11:16:53.973Z,33.30
2023-05-12T11:17:53.978Z,33.42
2023-05-12T11:18:54.081Z,33.24
2023-05-12T11:19:54.416Z,33.38
2023-05-12T11:20:53.909Z,33.43
2023-05-12T11:21:53.957Z,33.42
2023-05-12T11:22:53.918Z,33.42
2023-05-12T11:23:53.920Z,33.40
2023-05-12T11:24:54.494Z,33.50
2023-05-12T11:25:54.040Z,33.66
2023-05-12T11:26:54.029Z,34.23
2023-05-12T11:27:54.058Z,35.85
2023-05-12T11:28:54.127Z,34.37
2023-05-12T11:29:54.133Z,34.34
2023-05-12T11:30:55.451Z,35.56
2023-05-12T11:31:54.246Z,34.49
2023-05-12T11:32:54.282Z,34.37
2023-05-12T11:34:08.241Z,34.31
2023-05-12T11:34:55.289Z,34.39
2023-05-12T11:35:54.267Z,34.50
2023-05-12T11:36:54.259Z,34.77
2023-05-12T11:37:54.290Z,34.92
2023-05-12T11:38:54.230Z,35.01
2023-05-12T11:39:54.222Z,35.08
2023-05-12T11:40:54.243Z,35.17
2023-05-12T11:42:02.139Z,35.29
2023-05-12T11:42:55.212Z,35.32
2023-05-12T11:43:54.210Z,35.35
2023-05-12T11:44:54.205Z,35.28
2023-05-12T11:45:54.194Z,35.45
2023-05-12T11:46:54.199Z,35.37
2023-05-12T11:47:54.256Z,35.36
2023-05-12T11:48:54.169Z,35.38
2023-05-12T11:49:54.167Z,35.59
2023-05-12T11:50:54.191Z,35.45
2023-05-12T11:51:54.145Z,35.44
2023-05-12T11:52:54.146Z,35.29
2023-05-12T11:53:54.119Z,35.27
2023-05-12T11:54:54.123Z,35.35
2023-05-12T11:55:54.177Z,35.26
2023-05-12T11:56:54.130Z,35.26
2023-05-12T11:57:54.124Z,35.32
2023-05-12T11:58:54.125Z,35.32
2023-05-12T11:59:54.195Z,35.31
2023-05-12T12:00:54.234Z,35.18
2023-05-12T12:01:54.226Z,35.00
2023-05-12T12:02:54.412Z,35.06
2023-05-12T12:03:54.407Z,34.93
2023-05-12T12:04:54.439Z,34.89
2023-05-12T12:05:54.349Z,34.76
2023-05-12T12:06:54.396Z,34.66
2023-05-12T12:07:54.396Z,34.65
2023-05-12T12:08:54.401Z,34.46
2023-05-12T12:09:54.442Z,34.25
2023-05-12T12:10:54.445Z,34.03
2023-05-12T12:11:54.476Z,34.16
2023-05-12T12:12:54.515Z,34.04
2023-05-12T12:13:54.547Z,33.90
2023-05-12T12:14:54.604Z,34.04
2023-05-12T12:15:54.660Z,33.86
2023-05-12T12:16:54.653Z,33.74
2023-05-12T12:17:54.756Z,33.76
2023-05-12T12:18:54.773Z,33.75
2023-05-12T12:19:54.755Z,33.61
2023-05-12T12:20:54.777Z,33.59
2023-05-12T12:21:54.814Z,33.42
2023-05-12T12:22:54.908Z,33.16
2023-05-12T12:23:54.875Z,33.24
2023-05-12T12:24:54.917Z,33.18
2023-05-12T12:25:54.948Z,33.31
2023-05-12T12:26:54.980Z,33.05
2023-05-12T12:27:55.003Z,33.02
2023-05-12T12:28:55.054Z,33.04
2023-05-12T12:29:55.083Z,33.07
2023-05-12T12:30:55.136Z,32.99
2023-05-12T12:31:55.098Z,32.85
2023-05-12T12:32:55.214Z,32.69
2023-05-12T12:33:55.202Z,32.62
2023-05-12T12:34:55.227Z,32.42
2023-05-12T12:35:55.266Z,32.31
2023-05-12T12:36:55.313Z,32.24
2023-05-12T12:37:55.339Z,32.51
2023-05-12T12:38:55.359Z,32.73
2023-05-12T12:39:55.416Z,32.52
2023-05-12T12:40:55.430Z,32.79
2023-05-12T12:41:55.473Z,32.49
2023-05-12T12:42:55.501Z,32.86
2023-05-12T12:43:55.518Z,32.46
2023-05-12T12:44:55.577Z,32.70
2023-05-12T12:45:55.626Z,32.94
2023-05-12T12:46:55.671Z,33.00
2023-05-12T12:47:55.655Z,32.91
2023-05-12T12:48:55.686Z,32.63
2023-05-12T12:49:55.707Z,32.84
2023-05-12T12:50:55.707Z,32.63
2023-05-12T12:51:55.792Z,32.72
2023-05-12T12:52:55.798Z,32.61
2023-05-12T12:53:55.844Z,32.56
2023-05-12T12:54:55.823Z,32.39
2023-05-12T12:55:55.864Z,31.92